Time;durP1;ratioP1;P1;durP2;ratioP2;P2;SDS_P1;SDS_P2;PMS_P1;PMS_P2;Temp;Humidity;BMP_temperature;BMP_pressure;BME280_temperature;BME280_humidity;BME280_pressure;Samples;Min_cycle;Max_cycle;Signal;HPM_P1;HPM_P2
2023/10/25 00:00:29;;;;;;;2.05;0.98;;;9.80;99.90;;;;;;5024506;28;20025;-84
2023/10/25 00:02:55;;;;;;;6.80;1.15;;;9.80;99.90;;;;;;5015223;28;20045;-86
2023/10/25 00:05:21;;;;;;;1.60;0.90;;;9.80;99.90;;;;;;5017247;28;20417;-85
2023/10/25 00:07:47;;;;;;;2.50;1.17;;;9.70;99.90;;;;;;5020959;28;20025;-85
2023/10/25 00:10:12;;;;;;;3.10;0.95;;;9.80;99.90;;;;;;5022023;28;20486;-85
2023/10/25 00:12:38;;;;;;;1.60;1.00;;;9.70;99.90;;;;;;5021924;28;20025;-85
2023/10/25 00:15:05;;;;;;;2.60;1.23;;;9.70;99.90;;;;;;5018959;28;20614;-86
2023/10/25 00:17:31;;;;;;;3.28;1.10;;;9.70;99.90;;;;;;5020695;28;20439;-86
2023/10/25 00:19:56;;;;;;;1.48;0.93;;;9.80;99.90;;;;;;5021022;28;20087;-85
2023/10/25 00:22:22;;;;;;;3.38;0.98;;;9.70;99.90;;;;;;5025418;28;20116;-86
2023/10/25 00:24:48;;;;;;;3.60;1.10;;;9.80;99.90;;;;;;5016518;28;20029;-86
2023/10/25 00:27:13;;;;;;;7.80;1.30;;;9.80;99.90;;;;;;5025661;28;20025;-86
2023/10/25 00:29:40;;;;;;;2.70;1.08;;;9.80;99.90;;;;;;5025261;28;20025;-86
2023/10/25 00:32:05;;;;;;;3.33;1.23;;;9.80;99.90;;;;;;5025831;28;20057;-90
2023/10/25 00:34:31;;;;;;;2.88;1.00;;;9.80;99.90;;;;;;5021776;28;20123;-86
2023/10/25 00:36:57;;;;;;;3.25;1.10;;;9.80;99.90;;;;;;5023603;28;20052;-86
2023/10/25 00:39:23;;;;;;;2.33;1.20;;;9.80;99.90;;;;;;5027461;28;20034;-87
2023/10/25 00:41:48;;;;;;;1.30;0.90;;;9.80;99.90;;;;;;5024347;28;20033;-90
2023/10/25 00:44:14;;;;;;;1.08;1.00;;;9.80;99.90;;;;;;5026289;28;20575;-84
2023/10/25 00:46:40;;;;;;;3.97;1.42;;;9.80;99.90;;;;;;5025776;28;20091;-90
2023/10/25 00:49:07;;;;;;;7.20;1.58;;;9.80;99.90;;;;;;5023911;28;20030;-85
2023/10/25 00:51:33;;;;;;;5.47;1.52;;;9.80;99.90;;;;;;5018104;28;20551;-85
2023/10/25 00:54:02;;;;;;;3.38;1.77;;;9.80;99.90;;;;;;5025743;28;20033;-90
2023/10/25 00:56:31;;;;;;;1.38;1.10;;;9.80;99.90;;;;;;5022836;28;20029;-87
2023/10/25 00:58:57;;;;;;;4.05;1.38;;;9.80;99.90;;;;;;5023853;28;20044;-86
2023/10/25 01:01:25;;;;;;;2.75;1.35;;;9.90;99.90;;;;;;5027373;28;20056;-84
2023/10/25 01:03:51;;;;;;;3.70;1.35;;;9.90;99.90;;;;;;5024662;28;20054;-86
2023/10/25 01:06:17;;;;;;;6.20;1.70;;;10.00;99.90;;;;;;5024723;28;20083;-85
2023/10/25 01:08:43;;;;;;;4.40;1.33;;;10.00;99.90;;;;;;5023978;28;20448;-85
2023/10/25 01:11:10;;;;;;;7.88;1.50;;;10.00;99.90;;;;;;5017550;28;20025;-82
2023/10/25 01:13:36;;;;;;;2.63;1.08;;;10.00;99.90;;;;;;5023446;28;20040;-86
2023/10/25 01:16:02;;;;;;;3.40;1.30;;;10.00;99.90;;;;;;5003569;28;20488;-86
2023/10/25 01:18:28;;;;;;;4.25;1.55;;;9.90;99.90;;;;;;5025794;28;20057;-86
2023/10/25 01:20:56;;;;;;;3.58;1.27;;;9.90;99.90;;;;;;5023889;28;20084;-87
2023/10/25 01:23:22;;;;;;;6.00;1.80;;;9.90;99.90;;;;;;5019836;28;20029;-85
2023/10/25 01:25:48;;;;;;;5.25;1.50;;;9.90;99.90;;;;;;5024390;28;20037;-85
2023/10/25 01:28:13;;;;;;;3.03;1.60;;;9.90;99.90;;;;;;5023601;28;20359;-86
2023/10/25 01:30:40;;;;;;;6.05;1.20;;;9.80;99.90;;;;;;5021760;28;20025;-85
2023/10/25 01:33:06;;;;;;;2.50;1.15;;;9.70;99.90;;;;;;5020330;28;20083;-85
2023/10/25 01:35:33;;;;;;;12.60;2.05;;;9.70;99.90;;;;;;5005732;28;20033;-85
2023/10/25 01:37:59;;;;;;;3.53;1.30;;;9.60;99.90;;;;;;5023705;28;20056;-86
2023/10/25 01:40:24;;;;;;;1.90;1.05;;;9.50;99.90;;;;;;5022000;28;20029;-85
2023/10/25 01:42:51;;;;;;;3.13;1.38;;;9.50;99.90;;;;;;5019137;28;20032;-85
2023/10/25 01:45:17;;;;;;;8.07;1.38;;;9.40;99.90;;;;;;5018686;28;20635;-85
2023/10/25 01:47:42;;;;;;;2.83;1.05;;;9.30;99.90;;;;;;5024372;28;20025;-86
2023/10/25 01:50:29;;;;;;;2.92;1.40;;;9.30;99.90;;;;;;5021649;28;20029;-87
2023/10/25 01:52:55;;;;;;;;;;;9.30;99.90;;;;;;5026454;28;20044;-85
2023/10/25 01:55:21;;;;;;;9.43;1.85;;;9.30;99.90;;;;;;5023510;28;19924;-86
2023/10/25 01:57:46;;;;;;;1.85;1.73;;;9.20;99.90;;;;;;5022772;28;20025;-86
2023/10/25 02:00:12;;;;;;;3.50;1.83;;;9.20;99.90;;;;;;5017411;28;20033;-86
2023/10/25 02:02:39;;;;;;;1.85;1.75;;;9.20;99.90;;;;;;5005194;28;20068;-86
2023/10/25 02:05:05;;;;;;;6.38;2.88;;;9.20;99.90;;;;;;5015832;28;20049;-86
2023/10/25 02:07:31;;;;;;;4.35;2.72;;;9.30;99.90;;;;;;5023232;28;20568;-85
2023/10/25 02:09:56;;;;;;;5.90;3.42;;;9.30;99.90;;;;;;5014718;28;20044;-86
2023/10/25 02:12:22;;;;;;;4.18;3.22;;;9.40;99.90;;;;;;5019741;28;20025;-86
2023/10/25 02:14:47;;;;;;;2.60;2.35;;;9.40;99.90;;;;;;5014165;28;20128;-85
2023/10/25 02:17:13;;;;;;;3.60;2.38;;;9.40;99.90;;;;;;5023664;28;20025;-86
2023/10/25 02:19:40;;;;;;;6.22;3.80;;;9.40;99.90;;;;;;5023560;28;20026;-86
2023/10/25 02:22:06;;;;;;;4.95;2.97;;;9.40;99.90;;;;;;5031122;28;20037;-86
2023/10/25 02:24:31;;;;;;;3.55;3.25;;;9.40;99.90;;;;;;5006604;28;20034;-86
2023/10/25 02:26:57;;;;;;;9.23;4.25;;;9.40;99.90;;;;;;5003067;28;20030;-86
2023/10/25 02:29:23;;;;;;;6.60;3.53;;;9.50;99.90;;;;;;5027862;28;20105;-87
2023/10/25 02:31:48;;;;;;;6.72;4.05;;;9.50;99.90;;;;;;5024340;28;20048;-87
2023/10/25 02:34:14;;;;;;;10.57;5.25;;;9.40;99.90;;;;;;5034244;28;20076;-86
2023/10/25 02:36:39;;;;;;;5.55;4.30;;;9.40;99.90;;;;;;5022526;28;20394;-87
2023/10/25 02:39:08;;;;;;;5.68;3.55;;;9.50;99.90;;;;;;5022947;28;20033;-86
2023/10/25 02:41:34;;;;;;;12.13;4.65;;;9.50;99.90;;;;;;5021288;28;20029;-86
2023/10/25 02:44:01;;;;;;;8.95;3.67;;;9.50;99.90;;;;;;5021659;28;20079;-87
2023/10/25 02:46:26;;;;;;;6.05;3.33;;;9.50;99.90;;;;;;5026374;28;20022;-86
2023/10/25 02:48:52;;;;;;;16.30;5.25;;;9.50;99.90;;;;;;5024982;28;20033;-85
2023/10/25 02:51:31;;;;;;;10.68;4.82;;;9.50;99.90;;;;;;5021130;28;20021;-87
2023/10/25 02:53:57;;;;;;;12.25;3.63;;;9.40;99.90;;;;;;5030257;28;20072;-86
2023/10/25 02:56:22;;;;;;;10.43;4.03;;;9.40;99.90;;;;;;5028575;28;20049;-86
2023/10/25 02:58:48;;;;;;;6.22;3.65;;;9.40;99.90;;;;;;5023193;28;20032;-86
2023/10/25 03:01:24;;;;;;;4.78;3.38;;;9.30;99.90;;;;;;5027790;28;20029;-88
2023/10/25 03:03:51;;;;;;;16.73;4.50;;;9.30;99.90;;;;;;5028952;28;20132;-89
2023/10/25 03:06:17;;;;;;;10.68;3.75;;;9.30;99.90;;;;;;5031287;28;20494;-87
2023/10/25 03:08:43;;;;;;;9.35;4.38;;;9.40;99.90;;;;;;5031118;28;20112;-87
2023/10/25 03:11:08;;;;;;;10.73;4.03;;;9.40;99.90;;;;;;5009615;28;20120;-87
2023/10/25 03:13:34;;;;;;;9.77;5.05;;;9.40;99.90;;;;;;5022750;28;20029;-87
2023/10/25 03:15:59;;;;;;;15.23;4.53;;;9.50;99.90;;;;;;5020304;28;20432;-86
2023/10/25 03:18:25;;;;;;;8.73;4.90;;;9.50;99.90;;;;;;5006302;28;20021;-87
2023/10/25 03:20:50;;;;;;;8.80;5.43;;;9.50;99.90;;;;;;5031445;28;20108;-86
2023/10/25 03:23:16;;;;;;;13.48;3.70;;;9.50;99.90;;;;;;5019627;28;20030;-86
2023/10/25 03:25:42;;;;;;;13.02;3.95;;;9.50;99.90;;;;;;5028193;28;20052;-87
2023/10/25 03:28:07;;;;;;;5.43;3.33;;;9.40;99.90;;;;;;5029639;28;20029;-87
2023/10/25 03:30:35;;;;;;;5.28;3.55;;;9.40;99.90;;;;;;5028009;28;20112;-86
2023/10/25 03:33:00;;;;;;;13.38;4.88;;;9.50;99.90;;;;;;5028705;28;20120;-86
2023/10/25 03:35:27;;;;;;;5.15;2.95;;;9.40;99.90;;;;;;5028186;28;20128;-85
2023/10/25 03:37:52;;;;;;;5.55;3.25;;;9.40;99.90;;;;;;5024920;28;20032;-86
2023/10/25 03:40:18;;;;;;;7.40;3.10;;;9.40;99.90;;;;;;5023444;28;20026;-86
2023/10/25 03:42:44;;;;;;;10.98;3.47;;;9.40;99.90;;;;;;5019847;28;20037;-87
2023/10/25 03:45:10;;;;;;;8.50;3.17;;;9.40;99.90;;;;;;5026294;28;22616;-86
2023/10/25 03:47:37;;;;;;;5.50;3.10;;;9.30;99.90;;;;;;5019752;28;20484;-86
2023/10/25 03:50:04;;;;;;;6.28;3.17;;;9.40;99.90;;;;;;5027647;28;20500;-86
2023/10/25 03:52:33;;;;;;;7.00;4.07;;;9.30;99.90;;;;;;5009115;28;20037;-88
2023/10/25 03:55:00;;;;;;;8.38;3.20;;;9.30;99.90;;;;;;5023463;28;20033;-86
2023/10/25 03:57:26;;;;;;;4.13;3.03;;;9.30;99.90;;;;;;5027990;28;20029;-86
2023/10/25 03:59:52;;;;;;;4.32;3.40;;;9.30;99.90;;;;;;5023372;28;20021;-86
2023/10/25 04:02:18;;;;;;;4.43;2.47;;;9.30;99.90;;;;;;5027380;28;20396;-86
2023/10/25 04:04:44;;;;;;;7.15;2.60;;;9.30;99.90;;;;;;5025536;28;20037;-86
2023/10/25 04:07:18;;;;;;;7.22;2.63;;;9.30;99.90;;;;;;5019801;28;20492;-86
2023/10/25 04:09:44;;;;;;;6.70;2.25;;;9.30;99.90;;;;;;5027892;28;20520;-87
2023/10/25 04:12:12;;;;;;;6.88;2.17;;;9.20;99.90;;;;;;5025751;28;20038;-87
2023/10/25 04:14:42;;;;;;;6.10;2.67;;;9.20;99.90;;;;;;5024654;28;20030;-86
2023/10/25 04:17:08;;;;;;;6.18;2.50;;;9.20;99.90;;;;;;5029956;28;20084;-86
2023/10/25 04:19:37;;;;;;;4.78;2.45;;;9.10;99.90;;;;;;5025936;28;20334;-86
2023/10/25 04:22:04;;;;;;;2.80;1.73;;;9.10;99.90;;;;;;5030464;28;20037;-86
2023/10/25 04:24:30;;;;;;;7.30;2.53;;;9.10;99.90;;;;;;5027433;28;20041;-86
2023/10/25 04:27:00;;;;;;;4.50;2.38;;;9.10;99.90;;;;;;5032672;28;20033;-86
2023/10/25 04:29:26;;;;;;;4.60;2.20;;;9.10;99.90;;;;;;5007577;28;20042;-88
2023/10/25 04:31:51;;;;;;;5.15;2.80;;;9.00;99.90;;;;;;5029965;28;20533;-86
2023/10/25 04:34:17;;;;;;;10.20;3.15;;;9.00;99.90;;;;;;5022515;28;20040;-86
2023/10/25 04:36:42;;;;;;;5.53;2.53;;;9.10;99.90;;;;;;5010402;28;20060;-87
2023/10/25 04:39:09;;;;;;;6.88;2.28;;;9.10;99.90;;;;;;5025780;28;20484;-86
2023/10/25 04:41:35;;;;;;;6.18;2.88;;;9.10;99.90;;;;;;5025315;28;20100;-86
2023/10/25 04:44:01;;;;;;;10.45;3.15;;;9.10;99.90;;;;;;5021037;28;20109;-86
2023/10/25 04:46:26;;;;;;;4.75;2.92;;;9.00;99.90;;;;;;5020732;28;20056;-86
2023/10/25 04:48:52;;;;;;;5.10;2.50;;;9.00;99.90;;;;;;5026900;28;20029;-86
2023/10/25 04:51:18;;;;;;;4.38;2.70;;;9.00;99.90;;;;;;5027891;28;20033;-86
2023/10/25 04:53:45;;;;;;;4.93;2.53;;;9.00;99.90;;;;;;5023456;28;20038;-86
2023/10/25 04:56:11;;;;;;;4.43;2.00;;;9.00;99.90;;;;;;5025703;28;20481;-86
2023/10/25 04:58:36;;;;;;;4.03;2.22;;;9.00;99.90;;;;;;5006558;28;20052;-86
2023/10/25 05:01:13;;;;;;;7.35;2.47;;;9.00;99.90;;;;;;5021172;28;20026;-87
2023/10/25 05:03:40;;;;;;;7.53;2.95;;;9.00;99.90;;;;;;5026163;28;20434;-86
2023/10/25 05:06:12;;;;;;;10.52;4.85;;;9.00;99.90;;;;;;5031274;28;20606;-85
2023/10/25 05:08:38;;;;;;;4.45;2.83;;;9.00;99.90;;;;;;5024159;28;20021;-87
2023/10/25 05:11:05;;;;;;;10.40;2.95;;;9.00;99.90;;;;;;5022699;28;20079;-86
2023/10/25 05:13:31;;;;;;;5.57;3.08;;;9.00;99.90;;;;;;5022630;28;20322;-88
2023/10/25 05:15:57;;;;;;;2.58;2.38;;;9.00;99.90;;;;;;5034546;28;20029;-87
2023/10/25 05:18:23;;;;;;;9.63;2.67;;;9.00;99.90;;;;;;5029669;28;20044;-87
2023/10/25 05:21:01;;;;;;;5.43;2.80;;;9.00;99.90;;;;;;5026413;28;20009;-87
2023/10/25 05:23:35;;;;;;;3.35;2.65;;;9.00;99.90;;;;;;5005765;28;20086;-86
2023/10/25 05:26:03;;;;;;;6.68;2.22;;;9.00;99.90;;;;;;5023317;28;20049;-87
2023/10/25 05:28:30;;;;;;;3.35;1.75;;;9.00;99.90;;;;;;5026420;28;20082;-86
2023/10/25 05:31:00;;;;;;;2.83;2.20;;;9.00;99.90;;;;;;5025416;28;20375;-86
2023/10/25 05:33:29;;;;;;;9.73;2.35;;;9.00;99.90;;;;;;5024249;28;20026;-87
2023/10/25 05:35:55;;;;;;;4.57;2.35;;;9.00;99.90;;;;;;5025671;28;20052;-88
2023/10/25 05:38:20;;;;;;;3.13;1.90;;;9.00;99.90;;;;;;5027980;28;20033;-86
2023/10/25 05:40:48;;;;;;;7.10;2.20;;;9.00;99.90;;;;;;5025275;28;20029;-87
2023/10/25 05:43:15;;;;;;;2.55;2.03;;;9.00;99.90;;;;;;5025821;28;20527;-87
2023/10/25 05:45:42;;;;;;;3.40;2.33;;;9.10;99.90;;;;;;5003844;28;20041;-87
2023/10/25 05:48:13;;;;;;;6.97;2.90;;;9.10;99.90;;;;;;5023608;28;20025;-87
2023/10/25 05:50:43;;;;;;;8.95;2.50;;;9.10;99.90;;;;;;5009166;28;20056;-87
2023/10/25 05:53:09;;;;;;;2.47;2.28;;;9.00;99.90;;;;;;5027452;28;20029;-87
2023/10/25 05:55:36;;;;;;;5.57;3.00;;;9.00;99.90;;;;;;5025185;28;20045;-87
2023/10/25 05:58:02;;;;;;;3.13;2.20;;;9.00;99.90;;;;;;5028403;28;20021;-87
2023/10/25 06:00:28;;;;;;;8.23;2.70;;;9.00;99.90;;;;;;5028889;28;20018;-87
2023/10/25 06:02:56;;;;;;;3.97;2.50;;;9.00;99.90;;;;;;5025782;28;20145;-87
2023/10/25 06:05:23;;;;;;;3.83;2.40;;;9.00;99.90;;;;;;5024680;28;20025;-87
2023/10/25 06:07:50;;;;;;;3.28;2.60;;;8.90;99.90;;;;;;5026225;28;20036;-89
2023/10/25 06:10:16;;;;;;;3.70;2.55;;;8.90;99.90;;;;;;5010952;28;20422;-88
2023/10/25 06:12:42;;;;;;;2.78;2.28;;;8.90;99.90;;;;;;5015025;28;20124;-87
2023/10/25 06:15:09;;;;;;;5.20;2.80;;;8.90;99.90;;;;;;5019649;28;20214;-87
2023/10/25 06:17:35;;;;;;;4.28;2.28;;;8.90;99.90;;;;;;5001585;28;20026;-87
2023/10/25 06:20:01;;;;;;;4.47;2.25;;;8.90;99.90;;;;;;5021428;28;20395;-87
2023/10/25 06:22:26;;;;;;;4.57;2.60;;;8.80;99.90;;;;;;5017816;28;20041;-88
2023/10/25 06:24:52;;;;;;;2.55;2.03;;;8.90;99.90;;;;;;5020923;28;20387;-87
2023/10/25 06:27:17;;;;;;;13.40;2.22;;;8.80;99.90;;;;;;5023828;28;20052;-87
2023/10/25 06:29:43;;;;;;;7.38;2.70;;;8.80;99.90;;;;;;5022539;28;20040;-87
2023/10/25 06:32:09;;;;;;;4.20;2.33;;;8.80;99.90;;;;;;5019580;28;20025;-87
2023/10/25 06:34:34;;;;;;;5.05;2.08;;;8.80;99.90;;;;;;5023590;28;20072;-87
2023/10/25 06:37:00;;;;;;;4.10;2.05;;;8.80;99.90;;;;;;5023459;28;20636;-86
2023/10/25 06:39:26;;;;;;;2.95;2.30;;;8.70;99.90;;;;;;5027535;28;20060;-87
2023/10/25 06:41:52;;;;;;;3.00;2.00;;;8.70;99.90;;;;;;5005236;28;20034;-87
2023/10/25 06:44:18;;;;;;;4.00;2.30;;;8.70;99.90;;;;;;5024402;28;20039;-87
2023/10/25 06:46:44;;;;;;;4.93;2.15;;;8.70;99.90;;;;;;5026592;28;20529;-87
2023/10/25 06:49:10;;;;;;;5.13;2.40;;;8.70;99.90;;;;;;5027229;28;20026;-87
2023/10/25 06:51:35;;;;;;;11.35;2.45;;;8.60;99.90;;;;;;5021150;28;20029;-87
2023/10/25 06:54:02;;;;;;;8.38;2.35;;;8.60;99.90;;;;;;5026435;28;20088;-87
2023/10/25 06:56:29;;;;;;;5.28;1.92;;;8.60;99.90;;;;;;5025523;28;20040;-88
2023/10/25 06:58:56;;;;;;;5.80;2.17;;;8.60;99.90;;;;;;5029193;28;20045;-87
2023/10/25 07:01:25;;;;;;;4.50;2.58;;;8.50;99.90;;;;;;5026693;28;20099;-87
2023/10/25 07:03:53;;;;;;;7.38;2.60;;;8.50;99.90;;;;;;5008160;28;20144;-86
2023/10/25 07:06:19;;;;;;;3.80;2.33;;;8.50;99.90;;;;;;5027236;28;20486;-87
2023/10/25 07:08:46;;;;;;;5.80;2.08;;;8.50;99.90;;;;;;5026722;28;20036;-87
2023/10/25 07:11:11;;;;;;;1.95;1.48;;;8.50;99.90;;;;;;5006082;28;20059;-88
2023/10/25 07:13:37;;;;;;;2.25;2.05;;;8.50;99.90;;;;;;5023388;28;20061;-87
2023/10/25 07:16:04;;;;;;;3.08;1.83;;;8.40;99.90;;;;;;5029932;28;20029;-87
2023/10/25 07:18:30;;;;;;;2.85;2.17;;;8.50;99.90;;;;;;5026068;28;20119;-86
2023/10/25 07:20:56;;;;;;;4.30;2.40;;;8.50;99.90;;;;;;5017562;28;20026;-88
2023/10/25 07:23:21;;;;;;;5.85;2.10;;;8.50;99.90;;;;;;5029337;28;20029;-86
2023/10/25 07:25:47;;;;;;;9.48;4.10;;;8.40;99.90;;;;;;5028804;28;20029;-86
2023/10/25 07:28:13;;;;;;;16.58;4.18;;;8.50;99.90;;;;;;5010493;28;20095;-86
2023/10/25 07:30:40;;;;;;;9.38;4.32;;;8.60;99.90;;;;;;5022134;28;20026;-90
2023/10/25 07:33:06;;;;;;;11.68;5.93;;;8.70;99.90;;;;;;5024293;28;20030;-89
2023/10/25 07:35:32;;;;;;;11.38;6.22;;;8.80;99.90;;;;;;5027234;28;20044;-87
2023/10/25 07:37:58;;;;;;;8.80;4.95;;;8.90;99.90;;;;;;5015632;28;20183;-85
2023/10/25 07:40:23;;;;;;;11.50;5.05;;;9.00;99.90;;;;;;5022474;28;20029;-88
2023/10/25 07:42:49;;;;;;;9.07;4.38;;;9.10;99.90;;;;;;5023435;28;20052;-86
2023/10/25 07:45:14;;;;;;;8.85;5.25;;;9.20;99.90;;;;;;5015666;28;20036;-86
2023/10/25 07:47:41;;;;;;;9.02;5.55;;;9.40;99.90;;;;;;5028023;28;20104;-86
2023/10/25 07:50:18;;;;;;;9.48;5.32;;;9.50;99.90;;;;;;5020655;28;20128;-89
2023/10/25 07:52:45;;;;;;;10.57;5.68;;;9.50;99.90;;;;;;5027083;28;20033;-86
2023/10/25 07:55:11;;;;;;;6.30;4.10;;;9.60;99.90;;;;;;5025196;28;20052;-85
2023/10/25 07:57:38;;;;;;;5.60;4.10;;;9.60;99.90;;;;;;5028664;28;20061;-86
2023/10/25 08:00:05;;;;;;;16.83;5.00;;;9.60;99.90;;;;;;5023510;28;20061;-87
2023/10/25 08:02:30;;;;;;;8.85;4.80;;;9.70;99.90;;;;;;5027018;28;20523;-89
2023/10/25 08:04:56;;;;;;;8.23;4.40;;;9.80;99.90;;;;;;5024960;28;20017;-87
2023/10/25 08:07:23;;;;;;;11.23;5.28;;;9.80;99.90;;;;;;5007082;28;20025;-87
2023/10/25 08:09:49;;;;;;;7.85;4.63;;;9.90;99.90;;;;;;5025295;28;20112;-87
2023/10/25 08:12:14;;;;;;;9.60;3.90;;;9.90;99.90;;;;;;5023440;28;20125;-87
2023/10/25 08:14:40;;;;;;;12.13;4.57;;;10.00;99.90;;;;;;5023652;28;20041;-86
2023/10/25 08:17:05;;;;;;;10.43;4.65;;;10.00;99.90;;;;;;5006368;28;20029;-87
2023/10/25 08:19:31;;;;;;;10.65;4.60;;;10.10;99.90;;;;;;5027157;28;20494;-87
2023/10/25 08:21:57;;;;;;;9.57;4.30;;;10.10;99.90;;;;;;5024826;28;20543;-89
2023/10/25 08:24:23;;;;;;;12.75;5.00;;;10.10;99.90;;;;;;5025059;28;20363;-87
2023/10/25 08:26:52;;;;;;;7.45;4.60;;;10.20;99.90;;;;;;5025667;28;20029;-89
2023/10/25 08:29:17;;;;;;;7.35;4.90;;;10.10;99.90;;;;;;5024913;28;20029;-89
2023/10/25 08:31:46;;;;;;;7.38;3.72;;;10.20;99.90;;;;;;5024167;28;20116;-88
2023/10/25 08:34:12;;;;;;;11.90;4.50;;;10.20;99.90;;;;;;5003998;28;20021;-86
2023/10/25 08:36:38;;;;;;;8.32;3.60;;;10.30;99.90;;;;;;5023514;28;20539;-87
2023/10/25 08:39:04;;;;;;;9.13;4.93;;;10.30;99.90;;;;;;5027189;28;20254;-88
2023/10/25 08:41:30;;;;;;;5.07;3.08;;;10.30;99.90;;;;;;5027395;28;20047;-88
2023/10/25 08:43:58;;;;;;;4.43;2.63;;;10.30;99.90;;;;;;5027546;28;20037;-88
2023/10/25 08:46:25;;;;;;;5.97;3.22;;;10.30;99.90;;;;;;5027376;28;20025;-88
2023/10/25 08:48:57;;;;;;;5.82;2.65;;;10.30;99.90;;;;;;5010177;28;20029;-87
2023/10/25 08:51:23;;;;;;;5.65;2.80;;;10.30;99.90;;;;;;5016407;28;20516;-86
2023/10/25 08:53:54;;;;;;;3.25;2.25;;;10.30;99.90;;;;;;4998846;28;20033;-88
2023/10/25 08:56:20;;;;;;;5.60;3.47;;;10.40;99.90;;;;;;5022965;28;20029;-87
2023/10/25 08:58:46;;;;;;;9.48;3.00;;;10.40;99.90;;;;;;5019749;28;20017;-88
2023/10/25 09:01:11;;;;;;;7.25;3.17;;;10.40;99.90;;;;;;5022528;28;20394;-87
2023/10/25 09:03:40;;;;;;;2.78;2.47;;;10.40;99.90;;;;;;5024434;28;20049;-87
2023/10/25 09:06:08;;;;;;;5.40;2.40;;;10.50;99.90;;;;;;5025273;28;20026;-88
2023/10/25 09:08:34;;;;;;;3.85;2.47;;;10.50;99.90;;;;;;5022881;28;20034;-88
2023/10/25 09:11:02;;;;;;;4.85;3.22;;;10.50;99.90;;;;;;5021784;28;20053;-89
2023/10/25 09:13:33;;;;;;;3.33;2.28;;;10.50;99.90;;;;;;5028320;28;20052;-88
2023/10/25 09:16:05;;;;;;;9.32;3.17;;;10.60;99.90;;;;;;5021600;28;20048;-87
2023/10/25 09:18:33;;;;;;;7.57;3.30;;;10.60;99.90;;;;;;5025199;28;20164;-89
2023/10/25 09:21:01;;;;;;;4.85;2.38;;;10.60;99.90;;;;;;5029168;28;20021;-88
2023/10/25 09:23:28;;;;;;;3.60;2.63;;;10.70;99.90;;;;;;5024442;28;20064;-88
2023/10/25 09:26:01;;;;;;;7.30;2.90;;;10.80;99.90;;;;;;5005177;28;20035;-87
2023/10/25 09:28:27;;;;;;;9.05;3.05;;;10.80;99.90;;;;;;5026348;28;20032;-90
2023/10/25 09:30:58;;;;;;;7.35;3.15;;;10.90;99.90;;;;;;5001776;28;20060;-87
2023/10/25 09:33:24;;;;;;;6.28;3.80;;;10.90;99.90;;;;;;5025538;28;20952;-85
2023/10/25 09:35:51;;;;;;;15.75;4.57;;;11.00;99.90;;;;;;5021741;28;20065;-87
2023/10/25 09:38:17;;;;;;;8.25;4.35;;;10.90;99.90;;;;;;5024725;28;20018;-91
2023/10/25 09:40:44;;;;;;;10.57;3.95;;;11.00;99.90;;;;;;5025214;28;20034;-87
2023/10/25 09:43:17;;;;;;;4.78;3.20;;;11.00;99.90;;;;;;5021636;28;20026;-88
2023/10/25 09:45:52;;;;;;;10.02;4.70;;;11.00;99.90;;;;;;5017767;28;20033;-87
2023/10/25 09:48:19;;;;;;;10.95;5.03;;;11.00;99.90;;;;;;5024711;28;20049;-84
2023/10/25 09:50:56;;;;;;;6.03;3.70;;;11.00;99.90;;;;;;5011227;28;20035;-87
2023/10/25 09:53:38;;;;;;;6.57;3.47;;;10.90;99.90;;;;;;5018167;28;20543;-87
2023/10/25 09:56:04;;;;;;;4.50;3.22;;;10.90;99.90;;;;;;5018502;28;20053;-88
2023/10/25 09:58:35;;;;;;;7.50;3.67;;;10.90;99.90;;;;;;5021395;28;20125;-88
2023/10/25 10:01:03;;;;;;;5.22;3.40;;;10.90;99.90;;;;;;5024827;28;20029;-89
2023/10/25 10:03:44;;;;;;;8.95;3.75;;;10.90;99.90;;;;;;5023269;28;20049;-87
2023/10/25 10:06:35;;;;;;;5.93;3.53;;;10.90;99.90;;;;;;5025596;28;20424;-85
2023/10/25 10:09:22;;;;;;;6.55;3.75;;;10.90;99.90;;;;;;5022004;28;20116;-88
2023/10/25 10:11:53;;;;;;;8.50;4.38;;;11.00;99.90;;;;;;5021853;28;20029;-85
2023/10/25 10:14:28;;;;;;;10.07;3.63;;;11.00;99.90;;;;;;5023195;28;20099;-88
2023/10/25 10:16:59;;;;;;;6.88;3.28;;;11.00;99.90;;;;;;5010296;28;20033;-86
2023/10/25 10:19:24;;;;;;;6.65;3.10;;;10.90;99.90;;;;;;5021038;28;20663;-85
2023/10/25 10:22:10;;;;;;;8.20;2.85;;;10.90;99.90;;;;;;5027651;28;20041;-85
2023/10/25 10:24:42;;;;;;;9.77;3.33;;;10.90;99.90;;;;;;5021884;28;20025;-84
2023/10/25 10:27:09;;;;;;;5.90;3.92;;;11.00;99.90;;;;;;5027971;28;20303;-85
2023/10/25 10:29:35;;;;;;;8.20;3.42;;;11.00;99.90;;;;;;5028294;28;20021;-86
2023/10/25 10:32:05;;;;;;;9.90;3.70;;;11.00;99.90;;;;;;5028212;28;20250;-84
2023/10/25 10:34:56;;;;;;;8.73;3.60;;;11.10;99.90;;;;;;5024015;28;20048;-87
2023/10/25 10:37:28;;;;;;;3.63;2.45;;;11.20;99.90;;;;;;5022132;28;20029;-86
2023/10/25 10:39:56;;;;;;;3.80;2.42;;;11.20;99.90;;;;;;5025784;28;20041;-85
2023/10/25 10:42:31;;;;;;;9.82;2.60;;;11.20;99.90;;;;;;5005811;28;20030;-87
2023/10/25 10:45:09;;;;;;;9.85;2.63;;;11.30;99.90;;;;;;5028088;28;20028;-87
2023/10/25 10:47:50;;;;;;;5.20;2.13;;;11.30;99.90;;;;;;5025587;28;20061;-85
2023/10/25 10:50:18;;;;;;;6.85;2.30;;;11.40;99.90;;;;;;5026060;28;20378;-86
2023/10/25 10:52:45;;;;;;;4.13;2.30;;;11.50;99.90;;;;;;5025627;28;20385;-87
2023/10/25 10:55:19;;;;;;;9.95;3.28;;;11.50;99.90;;;;;;5004995;28;20041;-88
2023/10/25 10:57:45;;;;;;;4.32;2.10;;;11.60;99.90;;;;;;5024636;28;20018;-86
2023/10/25 11:00:16;;;;;;;4.97;1.88;;;11.60;99.90;;;;;;5026121;28;20052;-87
2023/10/25 11:02:45;;;;;;;4.20;2.05;;;11.70;99.90;;;;;;5023732;28;20370;-85
2023/10/25 11:05:14;;;;;;;5.15;2.28;;;11.70;99.90;;;;;;5023143;28;20512;-87
2023/10/25 11:07:40;;;;;;;3.08;1.75;;;11.80;99.90;;;;;;5024316;28;20064;-88
2023/10/25 11:10:06;;;;;;;3.90;2.03;;;11.80;99.90;;;;;;5021190;28;20091;-92
2023/10/25 11:12:32;;;;;;;12.07;2.58;;;11.80;99.90;;;;;;5024967;28;20021;-86
2023/10/25 11:15:03;;;;;;;6.75;2.00;;;11.80;99.90;;;;;;5007845;28;20033;-89
2023/10/25 11:17:33;;;;;;;9.80;2.70;;;11.80;99.90;;;;;;5026310;28;20527;-87
2023/10/25 11:20:01;;;;;;;5.40;2.47;;;11.90;99.90;;;;;;5024680;28;20058;-88
2023/10/25 11:22:30;;;;;;;5.30;2.95;;;11.90;99.90;;;;;;5030600;28;20025;-88
2023/10/25 11:24:57;;;;;;;7.43;2.55;;;11.90;99.90;;;;;;5025133;28;20026;-88
2023/10/25 11:27:31;;;;;;;6.28;2.33;;;11.90;99.90;;;;;;5028271;28;20037;-89
2023/10/25 11:29:57;;;;;;;5.90;2.50;;;11.90;99.90;;;;;;5009920;28;20033;-91
2023/10/25 11:32:23;;;;;;;6.28;2.22;;;11.80;99.90;;;;;;5020152;28;20032;-90
2023/10/25 11:34:52;;;;;;;2.67;1.40;;;11.80;99.90;;;;;;5024636;28;20045;-89
2023/10/25 11:37:19;;;;;;;5.88;2.00;;;11.80;99.90;;;;;;5026563;28;20036;-95
2023/10/25 11:39:58;;;;;;;5.82;2.33;;;11.70;99.90;;;;;;5025348;28;20033;-86
2023/10/25 11:42:27;;;;;;;7.75;2.50;;;11.80;99.90;;;;;;5026305;28;20148;-87
2023/10/25 11:44:53;;;;;;;6.70;1.80;;;11.80;99.90;;;;;;5027858;28;20028;-88
2023/10/25 11:47:21;;;;;;;3.95;1.83;;;11.90;99.90;;;;;;5023800;28;20036;-88
2023/10/25 11:49:58;;;;;;;6.65;2.10;;;11.90;99.90;;;;;;5025097;28;20068;-87
2023/10/25 11:52:27;;;;;;;9.60;2.55;;;12.00;99.90;;;;;;5023324;28;20026;-88
2023/10/25 11:54:57;;;;;;;14.05;2.78;;;11.90;99.90;;;;;;5026890;28;20095;-91
2023/10/25 11:57:29;;;;;;;4.93;2.05;;;12.00;99.90;;;;;;5012240;28;20029;-92
2023/10/25 11:59:54;;;;;;;8.05;2.00;;;12.00;99.90;;;;;;5015421;28;20026;-87
2023/10/25 12:02:22;;;;;;;3.92;1.55;;;12.10;99.90;;;;;;5023652;28;20049;-87
2023/10/25 12:04:52;;;;;;;7.82;1.63;;;12.10;99.90;;;;;;5013528;28;20037;-88
2023/10/25 12:07:20;;;;;;;4.15;2.50;;;12.20;99.90;;;;;;5024986;28;20018;-91
2023/10/25 12:09:46;;;;;;;6.35;2.03;;;12.20;99.90;;;;;;5034256;28;20079;-88
2023/10/25 12:12:12;;;;;;;7.10;2.30;;;12.20;99.90;;;;;;5024856;28;20416;-88
2023/10/25 12:14:40;;;;;;;6.80;2.20;;;12.30;99.90;;;;;;5029848;28;20045;-89
2023/10/25 12:17:06;;;;;;;6.47;2.25;;;12.40;99.90;;;;;;5032023;28;20029;-88
2023/10/25 12:19:32;;;;;;;7.45;2.83;;;12.40;99.90;;;;;;5029263;28;20108;-90
2023/10/25 12:21:58;;;;;;;6.40;2.30;;;12.40;99.90;;;;;;5027075;28;20026;-91
2023/10/25 12:24:26;;;;;;;8.75;2.75;;;12.40;99.90;;;;;;5031650;28;20394;-89
2023/10/25 12:26:53;;;;;;;8.63;2.42;;;12.40;99.90;;;;;;5008873;28;20028;-89
2023/10/25 12:29:19;;;;;;;8.10;2.30;;;12.40;99.90;;;;;;5026886;28;20026;-86
2023/10/25 12:31:46;;;;;;;5.78;2.20;;;12.40;99.90;;;;;;5011841;28;20527;-89
2023/10/25 12:34:12;;;;;;;7.10;2.00;;;12.30;99.90;;;;;;5021874;28;20041;-86
2023/10/25 12:36:38;;;;;;;11.10;2.13;;;12.30;99.90;;;;;;5025024;28;20516;-91
2023/10/25 12:39:03;;;;;;;4.32;2.00;;;12.20;99.90;;;;;;5027783;28;20320;-87
2023/10/25 12:41:29;;;;;;;4.63;1.73;;;12.10;99.90;;;;;;5008677;28;20125;-89
2023/10/25 12:43:56;;;;;;;7.30;2.22;;;12.20;99.90;;;;;;5002720;28;20025;-91
2023/10/25 12:46:21;;;;;;;3.53;1.75;;;12.20;99.90;;;;;;5024597;28;20036;-88
2023/10/25 12:48:47;;;;;;;9.02;2.13;;;12.30;99.90;;;;;;5026409;28;20022;-89
2023/10/25 12:51:13;;;;;;;4.47;1.63;;;12.40;99.90;;;;;;5028158;28;20053;-87
2023/10/25 12:53:38;;;;;;;5.95;2.13;;;12.50;99.90;;;;;;5026139;28;20105;-90